sensor_id;sensor_type;location;lat;lon;timestamp;P1;durP1;ratioP1;P2;durP2;ratioP2
12429;SDS011;6279;42.192;24.326;2022-07-04T00:00:39;4.40;;;2.07;;
12429;SDS011;6279;42.192;24.326;2022-07-04T00:03:05;4.23;;;2.40;;
12429;SDS011;6279;42.192;24.326;2022-07-04T00:05:30;3.30;;;2.20;;
12429;SDS011;6279;42.192;24.326;2022-07-04T00:07:56;7.93;;;2.10;;
12429;SDS011;6279;42.192;24.326;2022-07-04T00:10:21;6.17;;;1.90;;
12429;SDS011;6279;42.192;24.326;2022-07-04T00:12:47;7.30;;;2.37;;
12429;SDS011;6279;42.192;24.326;2022-07-04T00:15:14;5.27;;;2.00;;
12429;SDS011;6279;42.192;24.326;2022-07-04T00:17:40;6.63;;;2.70;;
12429;SDS011;6279;42.192;24.326;2022-07-04T00:20:06;4.07;;;2.17;;
12429;SDS011;6279;42.192;24.326;2022-07-04T00:22:32;7.93;;;2.23;;
12429;SDS011;6279;42.192;24.326;2022-07-04T00:24:58;2.90;;;1.90;;
12429;SDS011;6279;42.192;24.326;2022-07-04T00:27:24;4.53;;;2.17;;
12429;SDS011;6279;42.192;24.326;2022-07-04T00:29:49;7.03;;;2.23;;
12429;SDS011;6279;42.192;24.326;2022-07-04T00:32:15;5.73;;;2.30;;
12429;SDS011;6279;42.192;24.326;2022-07-04T00:34:40;6.70;;;2.37;;
12429;SDS011;6279;42.192;24.326;2022-07-04T00:37:06;3.37;;;2.27;;
12429;SDS011;6279;42.192;24.326;2022-07-04T00:39:32;5.83;;;2.23;;
12429;SDS011;6279;42.192;24.326;2022-07-04T00:41:57;4.77;;;2.30;;
12429;SDS011;6279;42.192;24.326;2022-07-04T00:44:23;8.33;;;2.07;;
12429;SDS011;6279;42.192;24.326;2022-07-04T00:46:48;3.90;;;2.00;;
12429;SDS011;6279;42.192;24.326;2022-07-04T00:49:16;3.90;;;2.17;;
12429;SDS011;6279;42.192;24.326;2022-07-04T00:51:43;6.80;;;2.03;;
12429;SDS011;6279;42.192;24.326;2022-07-04T00:54:11;4.27;;;2.07;;
12429;SDS011;6279;42.192;24.326;2022-07-04T00:56:38;7.53;;;2.40;;
12429;SDS011;6279;42.192;24.326;2022-07-04T00:59:05;2.27;;;2.00;;
12429;SDS011;6279;42.192;24.326;2022-07-04T01:01:32;7.73;;;2.10;;
12429;SDS011;6279;42.192;24.326;2022-07-04T01:03:58;4.87;;;2.10;;
12429;SDS011;6279;42.192;24.326;2022-07-04T01:06:24;6.10;;;2.00;;
12429;SDS011;6279;42.192;24.326;2022-07-04T01:08:49;4.63;;;2.13;;
12429;SDS011;6279;42.192;24.326;2022-07-04T01:11:15;3.70;;;2.53;;
12429;SDS011;6279;42.192;24.326;2022-07-04T01:13:41;3.13;;;2.40;;
12429;SDS011;6279;42.192;24.326;2022-07-04T01:16:08;2.63;;;2.13;;
12429;SDS011;6279;42.192;24.326;2022-07-04T01:18:34;4.87;;;2.07;;
12429;SDS011;6279;42.192;24.326;2022-07-04T01:21:00;10.13;;;2.73;;
12429;SDS011;6279;42.192;24.326;2022-07-04T01:23:26;7.40;;;2.10;;
12429;SDS011;6279;42.192;24.326;2022-07-04T01:25:52;7.13;;;2.40;;
12429;SDS011;6279;42.192;24.326;2022-07-04T01:28:18;3.63;;;2.20;;
12429;SDS011;6279;42.192;24.326;2022-07-04T01:30:46;4.63;;;2.40;;
12429;SDS011;6279;42.192;24.326;2022-07-04T01:33:12;5.47;;;2.27;;
12429;SDS011;6279;42.192;24.326;2022-07-04T01:35:37;3.83;;;2.37;;
12429;SDS011;6279;42.192;24.326;2022-07-04T01:38:03;9.53;;;2.40;;
12429;SDS011;6279;42.192;24.326;2022-07-04T01:40:28;6.13;;;2.70;;
12429;SDS011;6279;42.192;24.326;2022-07-04T01:42:54;5.63;;;2.30;;
12429;SDS011;6279;42.192;24.326;2022-07-04T01:45:19;6.70;;;3.10;;
12429;SDS011;6279;42.192;24.326;2022-07-04T01:47:45;5.93;;;2.53;;
12429;SDS011;6279;42.192;24.326;2022-07-04T01:50:10;6.57;;;2.50;;
12429;SDS011;6279;42.192;24.326;2022-07-04T01:52:39;4.43;;;2.60;;
12429;SDS011;6279;42.192;24.326;2022-07-04T01:55:06;5.77;;;2.57;;
12429;SDS011;6279;42.192;24.326;2022-07-04T01:57:32;4.70;;;2.67;;
12429;SDS011;6279;42.192;24.326;2022-07-04T01:59:58;3.57;;;2.90;;
12429;SDS011;6279;42.192;24.326;2022-07-04T02:02:42;12.43;;;7.60;;
12429;SDS011;6279;42.192;24.326;2022-07-04T02:05:08;7.87;;;6.03;;
12429;SDS011;6279;42.192;24.326;2022-07-04T02:07:33;6.73;;;4.63;;
12429;SDS011;6279;42.192;24.326;2022-07-04T02:09:59;5.30;;;3.77;;
12429;SDS011;6279;42.192;24.326;2022-07-04T02:12:24;7.50;;;4.30;;
12429;SDS011;6279;42.192;24.326;2022-07-04T02:15:08;9.27;;;4.20;;
12429;SDS011;6279;42.192;24.326;2022-07-04T02:17:34;6.90;;;3.70;;
12429;SDS011;6279;42.192;24.326;2022-07-04T02:20:00;6.70;;;3.77;;
12429;SDS011;6279;42.192;24.326;2022-07-04T02:22:25;6.87;;;3.50;;
12429;SDS011;6279;42.192;24.326;2022-07-04T02:24:51;4.97;;;3.57;;
12429;SDS011;6279;42.192;24.326;2022-07-04T02:27:16;8.80;;;4.43;;
12429;SDS011;6279;42.192;24.326;2022-07-04T02:29:42;6.70;;;4.83;;
12429;SDS011;6279;42.192;24.326;2022-07-04T02:32:08;7.17;;;4.80;;
12429;SDS011;6279;42.192;24.326;2022-07-04T02:34:33;8.50;;;5.33;;
12429;SDS011;6279;42.192;24.326;2022-07-04T02:36:59;7.50;;;5.00;;
12429;SDS011;6279;42.192;24.326;2022-07-04T02:39:24;7.47;;;4.93;;
12429;SDS011;6279;42.192;24.326;2022-07-04T02:41:50;5.87;;;4.10;;
12429;SDS011;6279;42.192;24.326;2022-07-04T02:44:15;9.73;;;5.33;;
12429;SDS011;6279;42.192;24.326;2022-07-04T02:46:41;7.83;;;5.47;;
12429;SDS011;6279;42.192;24.326;2022-07-04T02:49:06;11.90;;;5.27;;
12429;SDS011;6279;42.192;24.326;2022-07-04T02:51:32;8.10;;;5.47;;
12429;SDS011;6279;42.192;24.326;2022-07-04T02:53:57;7.27;;;5.87;;
12429;SDS011;6279;42.192;24.326;2022-07-04T02:56:23;12.43;;;4.53;;
12429;SDS011;6279;42.192;24.326;2022-07-04T02:58:49;4.77;;;3.53;;
12429;SDS011;6279;42.192;24.326;2022-07-04T03:01:14;8.10;;;3.50;;
12429;SDS011;6279;42.192;24.326;2022-07-04T03:03:40;5.30;;;3.13;;
12429;SDS011;6279;42.192;24.326;2022-07-04T03:06:09;5.23;;;3.47;;
12429;SDS011;6279;42.192;24.326;2022-07-04T03:08:35;7.37;;;3.50;;
12429;SDS011;6279;42.192;24.326;2022-07-04T03:11:00;5.43;;;3.17;;
12429;SDS011;6279;42.192;24.326;2022-07-04T03:13:26;9.47;;;3.10;;
12429;SDS011;6279;42.192;24.326;2022-07-04T03:15:51;7.60;;;3.50;;
12429;SDS011;6279;42.192;24.326;2022-07-04T03:18:18;5.50;;;3.10;;
12429;SDS011;6279;42.192;24.326;2022-07-04T03:20:44;7.97;;;3.40;;
12429;SDS011;6279;42.192;24.326;2022-07-04T03:23:09;9.07;;;3.50;;
12429;SDS011;6279;42.192;24.326;2022-07-04T03:25:35;5.73;;;3.20;;
12429;SDS011;6279;42.192;24.326;2022-07-04T03:28:00;5.93;;;3.30;;
12429;SDS011;6279;42.192;24.326;2022-07-04T03:30:26;12.17;;;3.20;;
12429;SDS011;6279;42.192;24.326;2022-07-04T03:32:51;5.13;;;3.20;;
12429;SDS011;6279;42.192;24.326;2022-07-04T03:35:17;5.17;;;3.00;;
12429;SDS011;6279;42.192;24.326;2022-07-04T03:37:43;5.63;;;3.30;;
12429;SDS011;6279;42.192;24.326;2022-07-04T03:40:08;3.73;;;3.07;;
12429;SDS011;6279;42.192;24.326;2022-07-04T03:42:34;7.20;;;3.87;;
12429;SDS011;6279;42.192;24.326;2022-07-04T03:44:59;5.13;;;2.80;;
12429;SDS011;6279;42.192;24.326;2022-07-04T03:47:25;5.23;;;2.90;;
12429;SDS011;6279;42.192;24.326;2022-07-04T03:49:50;4.03;;;2.80;;
12429;SDS011;6279;42.192;24.326;2022-07-04T03:52:16;4.00;;;2.87;;
12429;SDS011;6279;42.192;24.326;2022-07-04T03:54:41;4.87;;;3.33;;
12429;SDS011;6279;42.192;24.326;2022-07-04T03:57:06;4.97;;;2.83;;
12429;SDS011;6279;42.192;24.326;2022-07-04T03:59:32;5.67;;;3.17;;
12429;SDS011;6279;42.192;24.326;2022-07-04T04:01:57;5.33;;;3.20;;
12429;SDS011;6279;42.192;24.326;2022-07-04T04:04:23;4.80;;;3.60;;
12429;SDS011;6279;42.192;24.326;2022-07-04T04:07:07;5.97;;;3.50;;
12429;SDS011;6279;42.192;24.326;2022-07-04T04:09:33;6.30;;;3.33;;
12429;SDS011;6279;42.192;24.326;2022-07-04T04:11:58;5.33;;;3.40;;
12429;SDS011;6279;42.192;24.326;2022-07-04T04:14:24;6.33;;;3.67;;
12429;SDS011;6279;42.192;24.326;2022-07-04T04:16:49;6.30;;;3.50;;
12429;SDS011;6279;42.192;24.326;2022-07-04T04:19:15;6.27;;;3.40;;
12429;SDS011;6279;42.192;24.326;2022-07-04T04:21:41;5.70;;;3.80;;
12429;SDS011;6279;42.192;24.326;2022-07-04T04:24:06;4.17;;;3.37;;
12429;SDS011;6279;42.192;24.326;2022-07-04T04:26:32;5.93;;;3.60;;
12429;SDS011;6279;42.192;24.326;2022-07-04T04:28:58;7.23;;;3.70;;
12429;SDS011;6279;42.192;24.326;2022-07-04T04:31:24;5.13;;;3.13;;
12429;SDS011;6279;42.192;24.326;2022-07-04T04:33:49;6.10;;;3.30;;
12429;SDS011;6279;42.192;24.326;2022-07-04T04:36:15;3.67;;;2.90;;
12429;SDS011;6279;42.192;24.326;2022-07-04T04:38:40;4.80;;;3.03;;
12429;SDS011;6279;42.192;24.326;2022-07-04T04:41:06;5.23;;;3.20;;
12429;SDS011;6279;42.192;24.326;2022-07-04T04:43:31;5.17;;;3.20;;
12429;SDS011;6279;42.192;24.326;2022-07-04T04:45:56;25.03;;;5.50;;
12429;SDS011;6279;42.192;24.326;2022-07-04T04:48:22;9.87;;;3.50;;
12429;SDS011;6279;42.192;24.326;2022-07-04T04:50:47;9.83;;;3.73;;
12429;SDS011;6279;42.192;24.326;2022-07-04T04:53:13;3.30;;;3.00;;
12429;SDS011;6279;42.192;24.326;2022-07-04T04:55:38;6.13;;;3.30;;
12429;SDS011;6279;42.192;24.326;2022-07-04T04:58:04;3.90;;;2.77;;
12429;SDS011;6279;42.192;24.326;2022-07-04T05:00:30;4.37;;;2.87;;
12429;SDS011;6279;42.192;24.326;2022-07-04T05:02:56;6.10;;;2.97;;
12429;SDS011;6279;42.192;24.326;2022-07-04T05:05:21;4.05;;;2.95;;
12429;SDS011;6279;42.192;24.326;2022-07-04T05:07:47;3.20;;;2.90;;
12429;SDS011;6279;42.192;24.326;2022-07-04T05:10:12;4.55;;;3.03;;
12429;SDS011;6279;42.192;24.326;2022-07-04T05:12:38;6.85;;;3.55;;
12429;SDS011;6279;42.192;24.326;2022-07-04T05:15:03;3.67;;;2.85;;
12429;SDS011;6279;42.192;24.326;2022-07-04T05:17:30;4.25;;;3.05;;
12429;SDS011;6279;42.192;24.326;2022-07-04T05:19:55;3.05;;;2.60;;
12429;SDS011;6279;42.192;24.326;2022-07-04T05:22:21;4.78;;;2.40;;
12429;SDS011;6279;42.192;24.326;2022-07-04T05:24:46;5.80;;;2.80;;
12429;SDS011;6279;42.192;24.326;2022-07-04T05:27:11;6.30;;;2.63;;
12429;SDS011;6279;42.192;24.326;2022-07-04T05:29:37;3.83;;;2.30;;
12429;SDS011;6279;42.192;24.326;2022-07-04T05:32:03;4.05;;;2.50;;
12429;SDS011;6279;42.192;24.326;2022-07-04T05:34:29;4.25;;;2.30;;
12429;SDS011;6279;42.192;24.326;2022-07-04T05:36:54;7.47;;;2.30;;
12429;SDS011;6279;42.192;24.326;2022-07-04T05:39:20;4.60;;;2.42;;
12429;SDS011;6279;42.192;24.326;2022-07-04T05:41:46;4.47;;;2.45;;
12429;SDS011;6279;42.192;24.326;2022-07-04T05:44:11;4.95;;;2.63;;
12429;SDS011;6279;42.192;24.326;2022-07-04T05:46:37;3.08;;;2.20;;
12429;SDS011;6279;42.192;24.326;2022-07-04T05:49:02;6.18;;;2.50;;
12429;SDS011;6279;42.192;24.326;2022-07-04T05:51:28;5.35;;;2.50;;
12429;SDS011;6279;42.192;24.326;2022-07-04T05:53:53;7.00;;;2.60;;
12429;SDS011;6279;42.192;24.326;2022-07-04T05:56:19;3.53;;;2.55;;
12429;SDS011;6279;42.192;24.326;2022-07-04T05:58:44;2.63;;;2.35;;
12429;SDS011;6279;42.192;24.326;2022-07-04T06:01:10;2.60;;;2.40;;
12429;SDS011;6279;42.192;24.326;2022-07-04T06:03:35;7.80;;;2.90;;
12429;SDS011;6279;42.192;24.326;2022-07-04T06:06:04;4.43;;;2.90;;
12429;SDS011;6279;42.192;24.326;2022-07-04T06:08:29;5.55;;;2.88;;
12429;SDS011;6279;42.192;24.326;2022-07-04T06:10:55;7.22;;;2.83;;
12429;SDS011;6279;42.192;24.326;2022-07-04T06:13:21;3.80;;;3.00;;
12429;SDS011;6279;42.192;24.326;2022-07-04T06:15:47;6.50;;;3.17;;
12429;SDS011;6279;42.192;24.326;2022-07-04T06:18:12;5.10;;;2.65;;
12429;SDS011;6279;42.192;24.326;2022-07-04T06:20:38;3.53;;;3.00;;
12429;SDS011;6279;42.192;24.326;2022-07-04T06:23:05;7.72;;;3.03;;
12429;SDS011;6279;42.192;24.326;2022-07-04T06:25:31;5.70;;;3.10;;
12429;SDS011;6279;42.192;24.326;2022-07-04T06:27:57;3.85;;;3.33;;
12429;SDS011;6279;42.192;24.326;2022-07-04T06:30:23;5.55;;;3.30;;
12429;SDS011;6279;42.192;24.326;2022-07-04T06:32:50;4.95;;;3.70;;
12429;SDS011;6279;42.192;24.326;2022-07-04T06:35:18;3.42;;;2.90;;
12429;SDS011;6279;42.192;24.326;2022-07-04T06:38:03;9.82;;;3.42;;
12429;SDS011;6279;42.192;24.326;2022-07-04T06:40:29;7.78;;;3.33;;
12429;SDS011;6279;42.192;24.326;2022-07-04T06:42:54;8.85;;;3.78;;
12429;SDS011;6279;42.192;24.326;2022-07-04T06:45:20;4.82;;;3.50;;
12429;SDS011;6279;42.192;24.326;2022-07-04T06:47:45;5.15;;;3.38;;
12429;SDS011;6279;42.192;24.326;2022-07-04T06:50:11;3.58;;;3.25;;
12429;SDS011;6279;42.192;24.326;2022-07-04T06:52:37;4.95;;;3.72;;
12429;SDS011;6279;42.192;24.326;2022-07-04T06:55:04;3.28;;;2.85;;
12429;SDS011;6279;42.192;24.326;2022-07-04T06:57:30;4.47;;;3.03;;
12429;SDS011;6279;42.192;24.326;2022-07-04T06:59:55;3.78;;;2.72;;
12429;SDS011;6279;42.192;24.326;2022-07-04T07:02:20;7.70;;;3.17;;
12429;SDS011;6279;42.192;24.326;2022-07-04T07:04:46;6.57;;;3.35;;
12429;SDS011;6279;42.192;24.326;2022-07-04T07:07:11;3.58;;;2.78;;
12429;SDS011;6279;42.192;24.326;2022-07-04T07:09:36;4.35;;;2.50;;
12429;SDS011;6279;42.192;24.326;2022-07-04T07:12:02;9.55;;;3.00;;
12429;SDS011;6279;42.192;24.326;2022-07-04T07:14:28;4.75;;;2.58;;
12429;SDS011;6279;42.192;24.326;2022-07-04T07:16:53;6.10;;;2.53;;
12429;SDS011;6279;42.192;24.326;2022-07-04T07:19:19;5.20;;;2.50;;
12429;SDS011;6279;42.192;24.326;2022-07-04T07:21:44;3.67;;;2.78;;
12429;SDS011;6279;42.192;24.326;2022-07-04T07:24:10;3.35;;;2.60;;
12429;SDS011;6279;42.192;24.326;2022-07-04T07:26:35;6.47;;;2.63;;
12429;SDS011;6279;42.192;24.326;2022-07-04T07:29:00;3.90;;;2.75;;
12429;SDS011;6279;42.192;24.326;2022-07-04T07:31:26;4.63;;;2.85;;
12429;SDS011;6279;42.192;24.326;2022-07-04T07:33:51;7.05;;;3.17;;
12429;SDS011;6279;42.192;24.326;2022-07-04T07:36:17;3.50;;;2.92;;
12429;SDS011;6279;42.192;24.326;2022-07-04T07:38:42;4.05;;;2.92;;
12429;SDS011;6279;42.192;24.326;2022-07-04T07:41:08;3.38;;;2.78;;
12429;SDS011;6279;42.192;24.326;2022-07-04T07:43:35;4.55;;;2.90;;
12429;SDS011;6279;42.192;24.326;2022-07-04T07:46:01;4.65;;;3.05;;
12429;SDS011;6279;42.192;24.326;2022-07-04T07:48:28;5.13;;;2.88;;
12429;SDS011;6279;42.192;24.326;2022-07-04T07:50:53;6.55;;;3.22;;
12429;SDS011;6279;42.192;24.326;2022-07-04T07:53:19;6.53;;;3.05;;
12429;SDS011;6279;42.192;24.326;2022-07-04T07:55:44;4.68;;;3.08;;
12429;SDS011;6279;42.192;24.326;2022-07-04T07:58:10;6.57;;;2.90;;
12429;SDS011;6279;42.192;24.326;2022-07-04T08:00:35;3.40;;;3.10;;
12429;SDS011;6279;42.192;24.326;2022-07-04T08:03:00;6.85;;;3.30;;
12429;SDS011;6279;42.192;24.326;2022-07-04T08:05:49;3.55;;;3.15;;
12429;SDS011;6279;42.192;24.326;2022-07-04T08:08:14;5.30;;;2.63;;
12429;SDS011;6279;42.192;24.326;2022-07-04T08:10:40;4.10;;;2.90;;
12429;SDS011;6279;42.192;24.326;2022-07-04T08:13:05;3.95;;;2.90;;
12429;SDS011;6279;42.192;24.326;2022-07-04T08:15:31;4.88;;;2.85;;
12429;SDS011;6279;42.192;24.326;2022-07-04T08:17:57;7.65;;;3.05;;
12429;SDS011;6279;42.192;24.326;2022-07-04T08:20:23;5.38;;;3.05;;
12429;SDS011;6279;42.192;24.326;2022-07-04T08:22:48;7.57;;;2.50;;
12429;SDS011;6279;42.192;24.326;2022-07-04T08:25:14;6.53;;;2.85;;
12429;SDS011;6279;42.192;24.326;2022-07-04T08:27:40;5.18;;;2.60;;
12429;SDS011;6279;42.192;24.326;2022-07-04T08:30:06;8.07;;;2.75;;
12429;SDS011;6279;42.192;24.326;2022-07-04T08:32:33;3.10;;;2.50;;
12429;SDS011;6279;42.192;24.326;2022-07-04T08:34:58;5.82;;;2.63;;
12429;SDS011;6279;42.192;24.326;2022-07-04T08:37:24;6.00;;;2.53;;
12429;SDS011;6279;42.192;24.326;2022-07-04T08:39:50;3.47;;;2.47;;
12429;SDS011;6279;42.192;24.326;2022-07-04T08:42:16;6.72;;;2.70;;
12429;SDS011;6279;42.192;24.326;2022-07-04T08:44:45;5.35;;;2.50;;
12429;SDS011;6279;42.192;24.326;2022-07-04T08:47:16;5.30;;;2.53;;
12429;SDS011;6279;42.192;24.326;2022-07-04T08:52:30;3.97;;;2.60;;
12429;SDS011;6279;42.192;24.326;2022-07-04T08:55:02;7.88;;;2.25;;
12429;SDS011;6279;42.192;24.326;2022-07-04T08:57:47;2.67;;;2.47;;
12429;SDS011;6279;42.192;24.326;2022-07-04T09:00:32;4.00;;;2.45;;
12429;SDS011;6279;42.192;24.326;2022-07-04T09:02:59;5.47;;;2.50;;
12429;SDS011;6279;42.192;24.326;2022-07-04T09:05:26;3.30;;;2.58;;
12429;SDS011;6279;42.192;24.326;2022-07-04T09:07:52;5.30;;;2.40;;
12429;SDS011;6279;42.192;24.326;2022-07-04T09:10:19;2.40;;;2.20;;
12429;SDS011;6279;42.192;24.326;2022-07-04T09:12:46;3.88;;;2.90;;
12429;SDS011;6279;42.192;24.326;2022-07-04T09:15:11;8.10;;;3.08;;
12429;SDS011;6279;42.192;24.326;2022-07-04T09:17:37;4.93;;;2.33;;
12429;SDS011;6279;42.192;24.326;2022-07-04T09:20:15;2.30;;;2.10;;
12429;SDS011;6279;42.192;24.326;2022-07-04T09:22:46;3.50;;;2.40;;
12429;SDS011;6279;42.192;24.326;2022-07-04T09:25:12;5.60;;;2.17;;
12429;SDS011;6279;42.192;24.326;2022-07-04T09:27:45;4.18;;;2.05;;
12429;SDS011;6279;42.192;24.326;2022-07-04T09:30:17;2.15;;;1.95;;
12429;SDS011;6279;42.192;24.326;2022-07-04T09:32:48;5.35;;;2.10;;
12429;SDS011;6279;42.192;24.326;2022-07-04T09:35:20;5.95;;;2.50;;
12429;SDS011;6279;42.192;24.326;2022-07-04T09:37:48;3.72;;;2.20;;
12429;SDS011;6279;42.192;24.326;2022-07-04T09:42:48;2.60;;;2.40;;
12429;SDS011;6279;42.192;24.326;2022-07-04T09:45:14;3.67;;;2.00;;
12429;SDS011;6279;42.192;24.326;2022-07-04T09:47:40;4.72;;;2.22;;
12429;SDS011;6279;42.192;24.326;2022-07-04T09:50:16;3.80;;;2.40;;
12429;SDS011;6279;42.192;24.326;2022-07-04T09:53:16;3.08;;;2.20;;
12429;SDS011;6279;42.192;24.326;2022-07-04T09:55:37;5.05;;;2.30;;
12429;SDS011;6279;42.192;24.326;2022-07-04T09:58:08;4.07;;;2.00;;
12429;SDS011;6279;42.192;24.326;2022-07-04T10:00:36;2.35;;;2.15;;
12429;SDS011;6279;42.192;24.326;2022-07-04T10:06:01;3.33;;;1.77;;
12429;SDS011;6279;42.192;24.326;2022-07-04T10:08:32;4.90;;;1.88;;
12429;SDS011;6279;42.192;24.326;2022-07-04T10:10:59;4.05;;;1.95;;
12429;SDS011;6279;42.192;24.326;2022-07-04T10:13:25;3.40;;;1.60;;
12429;SDS011;6279;42.192;24.326;2022-07-04T10:15:51;2.45;;;1.83;;
12429;SDS011;6279;42.192;24.326;2022-07-04T10:18:18;2.45;;;1.90;;
12429;SDS011;6279;42.192;24.326;2022-07-04T10:20:45;3.28;;;2.10;;
12429;SDS011;6279;42.192;24.326;2022-07-04T10:23:11;3.58;;;1.73;;
12429;SDS011;6279;42.192;24.326;2022-07-04T10:25:37;1.98;;;1.50;;
12429;SDS011;6279;42.192;24.326;2022-07-04T10:28:03;2.15;;;1.75;;
12429;SDS011;6279;42.192;24.326;2022-07-04T10:30:30;2.95;;;1.85;;
12429;SDS011;6279;42.192;24.326;2022-07-04T10:32:58;4.10;;;2.20;;
12429;SDS011;6279;42.192;24.326;2022-07-04T10:38:13;3.38;;;2.00;;
12429;SDS011;6279;42.192;24.326;2022-07-04T10:40:43;3.28;;;1.80;;
12429;SDS011;6279;42.192;24.326;2022-07-04T11:01:44;3.35;;;2.00;;
12429;SDS011;6279;42.192;24.326;2022-07-04T11:04:11;2.63;;;2.20;;
12429;SDS011;6279;42.192;24.326;2022-07-04T11:17:04;3.85;;;2.22;;
12429;SDS011;6279;42.192;24.326;2022-07-04T11:19:30;2.20;;;2.00;;
12429;SDS011;6279;42.192;24.326;2022-07-04T11:21:56;8.18;;;2.15;;
12429;SDS011;6279;42.192;24.326;2022-07-04T11:24:22;3.85;;;2.20;;
12429;SDS011;6279;42.192;24.326;2022-07-04T11:26:48;3.80;;;2.28;;
12429;SDS011;6279;42.192;24.326;2022-07-04T11:29:14;2.55;;;2.20;;
12429;SDS011;6279;42.192;24.326;2022-07-04T11:31:41;2.85;;;2.13;;
12429;SDS011;6279;42.192;24.326;2022-07-04T11:34:09;7.18;;;2.47;;
12429;SDS011;6279;42.192;24.326;2022-07-04T11:36:35;6.70;;;2.40;;
12429;SDS011;6279;42.192;24.326;2022-07-04T11:39:02;3.25;;;2.55;;
12429;SDS011;6279;42.192;24.326;2022-07-04T11:44:15;3.75;;;2.38;;
12429;SDS011;6279;42.192;24.326;2022-07-04T11:47:05;2.97;;;2.20;;
12429;SDS011;6279;42.192;24.326;2022-07-04T11:49:47;2.05;;;1.85;;
12429;SDS011;6279;42.192;24.326;2022-07-04T11:52:13;3.15;;;2.25;;
12429;SDS011;6279;42.192;24.326;2022-07-04T11:54:40;3.08;;;2.10;;
12429;SDS011;6279;42.192;24.326;2022-07-04T11:57:08;3.35;;;2.15;;
12429;SDS011;6279;42.192;24.326;2022-07-04T11:59:37;3.92;;;2.60;;
12429;SDS011;6279;42.192;24.326;2022-07-04T12:02:13;5.00;;;2.30;;
12429;SDS011;6279;42.192;24.326;2022-07-04T12:04:40;5.72;;;2.78;;
12429;SDS011;6279;42.192;24.326;2022-07-04T12:07:14;2.90;;;2.15;;
12429;SDS011;6279;42.192;24.326;2022-07-04T12:09:41;3.38;;;2.20;;
12429;SDS011;6279;42.192;24.326;2022-07-04T12:12:07;5.80;;;2.30;;
12429;SDS011;6279;42.192;24.326;2022-07-04T12:14:34;3.35;;;2.17;;
12429;SDS011;6279;42.192;24.326;2022-07-04T12:17:09;4.50;;;2.30;;
12429;SDS011;6279;42.192;24.326;2022-07-04T12:19:36;2.70;;;2.30;;
12429;SDS011;6279;42.192;24.326;2022-07-04T12:22:02;5.20;;;2.42;;
12429;SDS011;6279;42.192;24.326;2022-07-04T12:24:28;4.95;;;2.38;;
12429;SDS011;6279;42.192;24.326;2022-07-04T12:26:53;4.85;;;2.90;;
12429;SDS011;6279;42.192;24.326;2022-07-04T12:29:22;2.70;;;2.45;;
12429;SDS011;6279;42.192;24.326;2022-07-04T12:31:50;4.30;;;2.78;;
12429;SDS011;6279;42.192;24.326;2022-07-04T12:34:18;3.38;;;2.17;;
12429;SDS011;6279;42.192;24.326;2022-07-04T12:39:28;4.72;;;2.65;;
12429;SDS011;6279;42.192;24.326;2022-07-04T12:42:10;4.07;;;2.47;;
12429;SDS011;6279;42.192;24.326;2022-07-04T12:44:37;4.15;;;2.80;;
12429;SDS011;6279;42.192;24.326;2022-07-04T12:47:03;4.35;;;2.60;;
12429;SDS011;6279;42.192;24.326;2022-07-04T12:49:30;2.95;;;2.60;;
12429;SDS011;6279;42.192;24.326;2022-07-04T12:54:41;6.38;;;2.90;;
12429;SDS011;6279;42.192;24.326;2022-07-04T12:57:11;4.15;;;2.67;;
12429;SDS011;6279;42.192;24.326;2022-07-04T12:59:38;4.05;;;3.00;;
12429;SDS011;6279;42.192;24.326;2022-07-04T13:02:04;5.85;;;2.88;;
12429;SDS011;6279;42.192;24.326;2022-07-04T13:04:31;4.63;;;3.03;;
12429;SDS011;6279;42.192;24.326;2022-07-04T13:06:58;4.32;;;2.65;;
12429;SDS011;6279;42.192;24.326;2022-07-04T13:09:25;5.88;;;2.72;;
12429;SDS011;6279;42.192;24.326;2022-07-04T13:11:51;2.85;;;2.65;;
12429;SDS011;6279;42.192;24.326;2022-07-04T13:14:35;4.25;;;2.42;;
12429;SDS011;6279;42.192;24.326;2022-07-04T13:17:01;3.78;;;2.45;;
12429;SDS011;6279;42.192;24.326;2022-07-04T13:19:26;3.65;;;2.80;;
12429;SDS011;6279;42.192;24.326;2022-07-04T13:21:52;3.22;;;2.70;;
12429;SDS011;6279;42.192;24.326;2022-07-04T13:24:18;4.25;;;2.70;;
12429;SDS011;6279;42.192;24.326;2022-07-04T13:26:46;3.13;;;2.80;;
12429;SDS011;6279;42.192;24.326;2022-07-04T13:29:12;7.00;;;2.95;;
12429;SDS011;6279;42.192;24.326;2022-07-04T13:31:37;4.35;;;3.08;;
12429;SDS011;6279;42.192;24.326;2022-07-04T13:34:03;5.22;;;2.80;;
12429;SDS011;6279;42.192;24.326;2022-07-04T13:36:28;2.88;;;2.60;;
12429;SDS011;6279;42.192;24.326;2022-07-04T13:38:53;8.40;;;2.72;;
12429;SDS011;6279;42.192;24.326;2022-07-04T13:41:19;5.28;;;3.10;;
12429;SDS011;6279;42.192;24.326;2022-07-04T13:43:44;4.05;;;3.00;;
12429;SDS011;6279;42.192;24.326;2022-07-04T13:46:10;9.80;;;5.93;;
12429;SDS011;6279;42.192;24.326;2022-07-04T13:48:35;3.35;;;2.60;;
12429;SDS011;6279;42.192;24.326;2022-07-04T13:51:01;6.13;;;3.15;;
12429;SDS011;6279;42.192;24.326;2022-07-04T13:53:26;5.10;;;2.85;;
12429;SDS011;6279;42.192;24.326;2022-07-04T13:55:52;5.20;;;2.90;;
12429;SDS011;6279;42.192;24.326;2022-07-04T13:58:18;4.40;;;2.95;;
12429;SDS011;6279;42.192;24.326;2022-07-04T14:00:43;4.18;;;2.83;;
12429;SDS011;6279;42.192;24.326;2022-07-04T14:03:10;3.00;;;2.70;;
12429;SDS011;6279;42.192;24.326;2022-07-04T14:05:38;6.97;;;2.80;;
12429;SDS011;6279;42.192;24.326;2022-07-04T14:08:07;4.97;;;2.70;;
12429;SDS011;6279;42.192;24.326;2022-07-04T14:10:33;6.20;;;3.20;;
12429;SDS011;6279;42.192;24.326;2022-07-04T14:12:58;3.25;;;2.95;;
12429;SDS011;6279;42.192;24.326;2022-07-04T14:15:23;5.40;;;3.25;;
12429;SDS011;6279;42.192;24.326;2022-07-04T14:17:49;3.65;;;2.97;;
12429;SDS011;6279;42.192;24.326;2022-07-04T14:20:14;4.93;;;2.95;;
12429;SDS011;6279;42.192;24.326;2022-07-04T14:22:40;7.18;;;3.33;;
12429;SDS011;6279;42.192;24.326;2022-07-04T14:25:06;3.25;;;2.95;;
12429;SDS011;6279;42.192;24.326;2022-07-04T14:27:33;5.97;;;3.40;;
12429;SDS011;6279;42.192;24.326;2022-07-04T14:29:59;3.00;;;2.60;;
12429;SDS011;6279;42.192;24.326;2022-07-04T14:32:24;4.85;;;3.10;;
12429;SDS011;6279;42.192;24.326;2022-07-04T14:34:50;6.70;;;3.10;;
12429;SDS011;6279;42.192;24.326;2022-07-04T14:37:15;5.93;;;3.00;;
12429;SDS011;6279;42.192;24.326;2022-07-04T14:39:41;4.82;;;3.20;;
12429;SDS011;6279;42.192;24.326;2022-07-04T14:42:06;3.65;;;3.22;;
12429;SDS011;6279;42.192;24.326;2022-07-04T14:44:32;3.88;;;2.90;;
12429;SDS011;6279;42.192;24.326;2022-07-04T14:47:03;5.05;;;3.03;;
12429;SDS011;6279;42.192;24.326;2022-07-04T14:49:32;5.53;;;3.17;;
12429;SDS011;6279;42.192;24.326;2022-07-04T14:51:57;6.38;;;3.63;;
12429;SDS011;6279;42.192;24.326;2022-07-04T14:54:23;4.10;;;3.10;;
12429;SDS011;6279;42.192;24.326;2022-07-04T14:56:48;4.05;;;3.00;;
12429;SDS011;6279;42.192;24.326;2022-07-04T14:59:14;4.05;;;3.00;;
12429;SDS011;6279;42.192;24.326;2022-07-04T15:01:39;5.03;;;3.00;;
12429;SDS011;6279;42.192;24.326;2022-07-04T15:04:05;6.82;;;3.47;;
12429;SDS011;6279;42.192;24.326;2022-07-04T15:06:30;5.40;;;2.85;;
12429;SDS011;6279;42.192;24.326;2022-07-04T15:08:56;8.10;;;3.35;;
12429;SDS011;6279;42.192;24.326;2022-07-04T15:11:21;4.32;;;3.05;;
12429;SDS011;6279;42.192;24.326;2022-07-04T15:13:47;7.05;;;3.15;;
12429;SDS011;6279;42.192;24.326;2022-07-04T15:16:13;3.88;;;3.25;;
12429;SDS011;6279;42.192;24.326;2022-07-04T15:18:39;8.70;;;3.65;;
12429;SDS011;6279;42.192;24.326;2022-07-04T15:21:05;3.70;;;2.90;;
12429;SDS011;6279;42.192;24.326;2022-07-04T15:23:48;3.10;;;2.80;;
12429;SDS011;6279;42.192;24.326;2022-07-04T15:26:32;5.78;;;3.10;;
12429;SDS011;6279;42.192;24.326;2022-07-04T15:28:59;4.65;;;3.00;;
12429;SDS011;6279;42.192;24.326;2022-07-04T15:31:25;3.40;;;3.10;;
12429;SDS011;6279;42.192;24.326;2022-07-04T15:33:51;7.78;;;3.10;;